OPLA/LHE METAR and TAF weather

Enter ICAO airport designator
Station Type Date Time Source
OPLA METAR 2021/09/16 11:25 UTC NOAA

OPLA 161125Z 30008KT 5000 HZ FEW040 36/22 Q1001 NOSIG RMK QFE973 RMK A29.57


Station Type Date Time Source
OPLA Decoded METAR 2021/09/16 11:25 UTC NOAA

Lahore Airport, Pakistan (OPLA) 31-31N 074-24E 217M
Sep 16, 2021 - 07:25 AM EDT / 2021.09.16 1125 UTC
Wind: from the WNW (300 degrees) at 9 MPH (8 KT):0
Visibility: 3 mile(s):0
Sky conditions: mostly clear
Weather: haze
Temperature: 96 F (36 C)
Heat index: 103.5 F (39.7 C):1
Dew Point: 71 F (22 C)
Relative Humidity: 44%
Pressure (altimeter): 29.56 in. Hg (1001 hPa)
ob: OPLA 161125Z 30008KT 5000 HZ FEW040 36/22 Q1001 NOSIG RMK QFE973 RMK A29.57
cycle: 11

Station Type Date Time Source
OPLA TAF 2021/09/16 12:48 UTC NOAA

TAF TAF OPLA 160945Z 1612/1718 14008KT 4000 FU FEW040 TX37/1710Z TN28/1700Z
BECMG 1704/1706 SCT040 PROB30
TEMPO 1709/1713 33015G35KT 2000 -TSRA FEW030CB SCT040 BKN100

Example: see airport list